Weather observations for the past three days for
Genesee County Airport
Imperial (Metric)
Date Time (edt) Wind (mph) Vis. (mi.) Weather Sky Cond. Temperature (ºF) Relative Humidity Wind Chill (°F) Heat Index (°F) Pressure Precipitation (in)
Air Dwpt 6 hour altimeter (in) sea level (mb) 1 hr 3 hr 6 hr
Max. Min.
05 23:56 S 3 10.00 Overcast OVC002 60.1 59 96% 30.01 1015.8
05 22:56 Calm 10.00 Overcast OVC002 61 59 93% 30 1015.6
05 21:56 Calm 10.00 Overcast OVC002 64 59 84% 29.99 1015.3
05 20:56 Calm 10.00 Overcast OVC002 64 59 84% 29.99 1015.2
05 19:56 NE 6 10.00 Overcast OVC002 66.9 59 73 66.9 76% 29.99 1015.1
05 18:56 N 6 10.00 Overcast OVC002 70 57.9 66% 29.98 1015.0
05 17:56 N 7 10.00 Overcast OVC002 72 55 55% 29.98 1014.8
05 16:56 N 7 10.00 Overcast OVC002 73 57 57% 29.97 1014.3
05 15:56 N 9 10.00 Overcast BKN002 OVC039 71.1 57 61% 29.97 1014.4
05 13:56 N 7 10.00 Overcast OVC002 72 55.9 73 62.1 57% 29.97 1014.2
05 12:56 N 7 10.00 Overcast SCT002 OVC032 71.1 57 61% 29.97 1014.3
05 11:56 NE 8 10.00 Overcast OVC002 71.1 57.9 63% 29.98 1014.5
05 10:56 NW 8 10.00 Overcast BKN002 OVC023 70 59 68% 29.98 1014.7
05 09:56 N 7 10.00 Overcast BKN002 OVC013 66.9 61 81% 29.98 1014.7
05 08:56 N 8 10.00 Overcast OVC002 64.9 62.1 90% 29.98 1014.6
05 07:56 Calm 10.00 Overcast OVC002 62.1 60.1 63 59 93% 29.98 1014.8
05 06:56 NW 5 10.00 Fair CLR 59 57.9 96% 29.96 1014.1
05 05:56 W 3 9.00 Fair CLR 60.1 59 96% 29.95 1013.9
05 04:56 Calm 10.00 Fair CLR 61 60.1 97% 29.94 1013.3
05 03:56 Calm 9.00 Fair CLR 60.1 60.1 100% 29.95 1013.6
05 02:56 Calm 10.00 Fair CLR 62.1 61 96% 29.95 1013.7
05 01:56 N 5 10.00 Partly Cloudy SCT049 63 61 71.1 63 93% 29.96 1013.9 0.01 0.01
05 00:56 NW 6 10.00 Fair CLR 64.9 61 87% 29.96 1014.2
04 23:56 NW 6 10.00 Partly Cloudy SCT044 64.9 61 87% 29.97 1014.1
04 22:56 NW 6 10.00 Mostly Cloudy SCT036 BKN047 66 60.1 81% 29.96 1014.1
04 21:56 W 3 10.00 Mostly Cloudy BKN043 68 59 73% 29.97 1014.2
04 20:56 W 3 10.00 Overcast BKN047 OVC100 70 59 68% 29.97 1014.4
04 19:56 W 6 10.00 Overcast OVC110 71.1 62.1 75.9 70 73% 29.96 1014.0
04 18:56 NW 3 4.00 Overcast with Haze OVC100 72 61 68% 29.95 1013.5
04 17:56 NW 6 10.00 Mostly Cloudy BKN110 72 59 64% 29.93 1012.9
04 16:56 W 8 10.00 Mostly Cloudy BKN090 73.9 59 60% 29.95 1013.7
04 15:56 NW 9 10.00 A Few Clouds FEW090 73.9 59 60% 29.96 1014.0
04 14:56 W 12 10.00 Overcast FEW036 OVC090 75 59 58% 77 29.98 1014.6
04 13:56 W 10 10.00 Fair CLR 75 60.1 75 66 60% 77 29.99 1015.0
04 12:56 W 8 10.00 A Few Clouds FEW029 73.9 59 60% 30 1015.5
04 11:56 Vrbl 5 10.00 A Few Clouds FEW019 72 61 68% 30 1015.4
04 10:56 NW 6 10.00 Fair CLR 70 62.1 76% 30 1015.5
04 09:56 W 6 10.00 Overcast OVC045 68 62.1 81% 30 1015.3
04 08:56 W 7 10.00 Overcast OVC045 66 61 84% 30.01 1015.4
04 07:56 W 5 10.00 Mostly Cloudy BKN047 66 61 68 63 84% 29.99 1015.2
04 06:56 SW 3 10.00 A Few Clouds FEW043 64 61 90% 29.98 1015.0
04 05:56 W 6 10.00 Overcast OVC038 66 62.1 87% 29.98 1014.6
04 04:56 W 6 10.00 Overcast OVC041 66 62.1 87% 29.98 1014.5
04 03:56 W 6 10.00 Overcast OVC042 66 62.1 87% 29.96 1013.9
04 02:56 NW 7 10.00 Partly Cloudy FEW036 SCT065 66.9 63 87% 29.95 1013.6
04 01:56 W 5 10.00 Overcast OVC033 68 66 75 68 93% 29.96 1013.8
Date Time (edt) Wind (mph) Vis. (mi.) Weather Sky Cond. Air Dwpt Max. Min. Relative Humidity Wind Chill (°F) Heat Index (°F) altimeter (in) sea level (mb) 1 hr 3 hr 6 hr
6 hour
Temperature (ºF) Pressure Precipitation (in)